createdAt,value
2023-04-19T03:12:38.298Z,10.44
2023-04-19T03:15:40.983Z,10.26
2023-04-19T03:18:43.460Z,10.22
2023-04-19T03:21:47.003Z,10.18
2023-04-19T03:24:49.300Z,10.07
2023-04-19T03:27:52.620Z,10.11
2023-04-19T03:30:58.064Z,10.02
2023-04-19T03:34:00.555Z,9.96
2023-04-19T03:37:03.443Z,9.99
2023-04-19T03:40:06.927Z,9.91
2023-04-19T03:43:09.336Z,9.79
2023-04-19T03:46:11.867Z,9.74
2023-04-19T03:49:14.111Z,9.71
2023-04-19T03:52:16.885Z,9.71
2023-04-19T03:55:20.031Z,9.74
2023-04-19T03:58:23.204Z,9.69
2023-04-19T04:01:27.038Z,9.71
2023-04-19T04:04:30.085Z,9.83
2023-04-19T04:07:32.465Z,9.76
2023-04-19T04:10:35.836Z,9.70
2023-04-19T04:13:38.268Z,9.75
2023-04-19T04:16:45.368Z,9.87
2023-04-19T04:19:47.853Z,10.52
2023-04-19T04:22:50.572Z,10.41
2023-04-19T04:26:05.161Z,10.36
2023-04-19T04:29:08.659Z,10.58
2023-04-19T04:32:11.483Z,10.43
2023-04-19T04:35:14.314Z,10.51
2023-04-19T04:38:24.696Z,10.66
2023-04-19T04:41:28.043Z,10.75
2023-04-19T04:44:30.644Z,10.86
2023-04-19T04:47:36.038Z,11.13
2023-04-19T04:50:38.889Z,11.24
2023-04-19T04:53:41.529Z,11.47
2023-04-19T04:56:44.575Z,11.64
2023-04-19T04:59:50.275Z,11.84
2023-04-19T05:02:53.669Z,12.03
2023-04-19T05:05:58.245Z,12.14
2023-04-19T05:09:00.513Z,12.44
2023-04-19T05:12:04.891Z,12.73
2023-04-19T05:15:07.891Z,13.04
2023-04-19T05:18:12.516Z,13.37
2023-04-19T05:21:15.636Z,13.85
2023-04-19T05:24:18.785Z,14.23
2023-04-19T05:27:21.736Z,14.44
2023-04-19T05:30:24.466Z,15.06
2023-04-19T05:33:27.168Z,15.60
2023-04-19T05:36:32.207Z,15.65
2023-04-19T05:39:34.917Z,17.00
2023-04-19T05:42:38.698Z,17.82
2023-04-19T05:45:40.940Z,18.91
2023-04-19T05:48:43.465Z,19.69
2023-04-19T05:51:46.589Z,20.12
2023-04-19T05:54:49.486Z,21.09
2023-04-19T05:57:51.743Z,22.21
2023-04-19T06:00:58.860Z,22.97
2023-04-19T06:04:01.758Z,22.33
2023-04-19T06:07:06.213Z,22.76
2023-04-19T06:10:10.944Z,20.54
2023-04-19T06:13:13.828Z,19.46
2023-04-19T06:16:16.350Z,19.79
2023-04-19T06:19:19.009Z,19.90
2023-04-19T06:22:21.951Z,19.30
2023-04-19T06:25:24.666Z,18.95
2023-04-19T06:28:27.468Z,18.60
2023-04-19T06:31:29.952Z,19.03
2023-04-19T06:34:32.553Z,18.06
2023-04-19T06:37:34.960Z,18.64
2023-04-19T06:40:39.192Z,19.20
2023-04-19T06:43:42.875Z,19.48
2023-04-19T06:46:45.471Z,19.51
2023-04-19T06:49:48.892Z,18.92
2023-04-19T06:52:51.402Z,19.45
2023-04-19T06:56:02.577Z,19.60
2023-04-19T06:59:05.156Z,19.37
2023-04-19T07:02:07.899Z,19.44
2023-04-19T07:05:10.523Z,19.75
2023-04-19T07:08:12.881Z,20.06
2023-04-19T07:11:15.638Z,21.76
2023-04-19T07:14:20.949Z,22.46
2023-04-19T07:17:23.902Z,23.06
2023-04-19T07:20:26.081Z,24.21
2023-04-19T07:23:28.469Z,23.67
2023-04-19T07:26:31.602Z,25.48
2023-04-19T07:29:37.605Z,27.19
2023-04-19T07:32:39.993Z,27.63
2023-04-19T07:35:42.889Z,28.28
2023-04-19T07:38:48.014Z,28.20
2023-04-19T07:42:04.444Z,29.23
2023-04-19T07:45:08.909Z,31.26
2023-04-19T07:48:11.876Z,30.60
2023-04-19T07:51:19.484Z,31.43
2023-04-19T07:54:24.080Z,28.89
2023-04-19T07:57:26.392Z,29.63
2023-04-19T08:00:30.019Z,31.90
2023-04-19T08:03:34.386Z,30.91
2023-04-19T08:06:48.001Z,26.93
2023-04-19T08:09:50.592Z,24.43
2023-04-19T08:13:05.260Z,23.28
2023-04-19T08:19:13.556Z,22.01
2023-04-19T08:22:18.029Z,21.93
2023-04-19T08:25:21.364Z,21.82
2023-04-19T08:28:23.927Z,18.77
2023-04-19T08:31:26.044Z,18.23
2023-04-19T08:34:28.881Z,18.58
2023-04-19T08:37:31.056Z,18.62
2023-04-19T08:40:33.890Z,18.28
2023-04-19T08:43:39.260Z,18.05
2023-04-19T08:46:44.152Z,20.82
2023-04-19T08:52:58.645Z,23.11
2023-04-19T08:56:18.069Z,21.56
2023-04-19T08:59:32.984Z,20.81
2023-04-19T09:02:48.963Z,19.77
2023-04-19T09:05:51.689Z,20.24
2023-04-19T09:09:28.817Z,20.11
2023-04-19T09:12:36.828Z,21.46
2023-04-19T09:15:41.890Z,19.47
2023-04-19T09:19:05.335Z,19.64
2023-04-19T09:22:14.839Z,22.08
2023-04-19T09:28:31.829Z,22.35
2023-04-19T09:31:51.000Z,25.52
2023-04-19T09:34:59.905Z,27.33
2023-04-19T09:38:06.631Z,28.65
2023-04-19T09:41:10.403Z,32.38
2023-04-19T09:47:30.201Z,37.74
2023-04-19T09:50:34.214Z,34.96
2023-04-19T09:53:44.647Z,35.61
2023-04-19T09:56:48.446Z,37.10
2023-04-19T09:59:50.764Z,34.64
2023-04-19T10:02:58.479Z,32.99
2023-04-19T10:06:10.621Z,31.99
2023-04-19T10:09:19.385Z,32.45
2023-04-19T10:15:49.360Z,36.05
2023-04-19T10:18:57.425Z,38.47
2023-04-19T10:22:00.264Z,37.68
2023-04-19T10:25:14.248Z,37.74
2023-04-19T10:28:17.024Z,38.64
2023-04-19T10:31:23.902Z,38.46
2023-04-19T10:34:43.368Z,33.44
2023-04-19T10:38:13.028Z,27.12
2023-04-19T10:41:24.907Z,23.32
2023-04-19T10:44:27.637Z,21.98
2023-04-19T10:47:44.630Z,20.85
2023-04-19T10:51:03.213Z,19.95
2023-04-19T10:54:08.848Z,18.70
2023-04-19T10:57:11.669Z,18.52
2023-04-19T11:00:21.838Z,18.08
2023-04-19T11:03:43.289Z,18.28
2023-04-19T11:06:52.369Z,18.12
2023-04-19T11:09:55.396Z,18.11
2023-04-19T11:12:58.279Z,18.00
2023-04-19T11:16:02.046Z,17.63
2023-04-19T11:19:05.732Z,17.97
2023-04-19T11:22:08.162Z,18.33
2023-04-19T11:25:19.301Z,18.34
2023-04-19T11:28:22.055Z,18.24
2023-04-19T11:31:25.481Z,18.24
2023-04-19T11:34:30.002Z,18.61
2023-04-19T11:37:35.809Z,18.65
2023-04-19T11:40:39.184Z,18.80
2023-04-19T11:43:45.267Z,18.39
2023-04-19T11:47:02.235Z,19.12
2023-04-19T11:50:28.525Z,19.80
2023-04-19T11:53:32.634Z,20.14
2023-04-19T11:56:34.761Z,20.07
2023-04-19T11:59:37.419Z,20.00
2023-04-19T12:02:41.326Z,19.38
2023-04-19T12:05:57.655Z,19.82
2023-04-19T12:09:00.031Z,19.88
2023-04-19T12:12:03.346Z,19.41
2023-04-19T12:15:06.552Z,19.85
2023-04-19T12:18:09.385Z,20.30
2023-04-19T12:21:24.638Z,19.46
2023-04-19T12:24:27.032Z,19.20
2023-04-19T12:27:29.285Z,19.05
2023-04-19T12:30:32.188Z,18.41
2023-04-19T12:33:34.331Z,18.60
2023-04-19T12:36:36.757Z,18.74
2023-04-19T12:39:38.941Z,18.70
2023-04-19T12:42:41.367Z,18.78
2023-04-19T12:45:44.693Z,19.44
2023-04-19T12:48:47.120Z,20.30
2023-04-19T12:51:49.259Z,20.75
2023-04-19T12:54:51.813Z,20.74
2023-04-19T12:57:54.139Z,20.31
2023-04-19T13:00:56.721Z,20.40
2023-04-19T13:03:59.641Z,20.29
2023-04-19T13:07:02.426Z,20.28
2023-04-19T13:10:05.089Z,20.38
2023-04-19T13:13:07.570Z,19.83
2023-04-19T13:16:09.849Z,20.25
2023-04-19T13:19:12.289Z,20.47
2023-04-19T13:22:15.535Z,20.61
2023-04-19T13:25:18.047Z,20.93
2023-04-19T13:28:20.140Z,21.11
2023-04-19T13:31:22.545Z,21.21
2023-04-19T13:34:24.723Z,20.85
2023-04-19T13:37:27.174Z,20.72
2023-04-19T13:40:29.306Z,20.35
2023-04-19T13:43:31.844Z,20.51
2023-04-19T13:46:34.042Z,20.41
2023-04-19T13:49:36.500Z,19.54
2023-04-19T13:52:38.870Z,19.59
2023-04-19T13:55:41.408Z,19.59
2023-04-19T13:58:43.590Z,19.68
2023-04-19T14:01:46.084Z,19.95
2023-04-19T14:04:48.592Z,20.14
2023-04-19T14:07:50.820Z,19.05
2023-04-19T14:10:53.899Z,19.09
2023-04-19T14:13:56.218Z,19.40
2023-04-19T14:16:58.675Z,19.51
2023-04-19T14:20:00.812Z,19.04
2023-04-19T14:23:03.712Z,18.96
2023-04-19T14:26:05.872Z,19.04
2023-04-19T14:29:08.303Z,18.86
2023-04-19T14:32:21.595Z,18.76
2023-04-19T14:35:27.653Z,19.14
2023-04-19T14:38:29.854Z,19.15
2023-04-19T14:41:32.227Z,18.89
2023-04-19T14:44:34.365Z,18.98
2023-04-19T14:47:36.858Z,19.04
2023-04-19T14:50:38.998Z,18.56
2023-04-19T14:53:41.401Z,18.08
2023-04-19T14:56:43.646Z,17.89
2023-04-19T14:59:46.915Z,17.54
2023-04-19T15:02:49.866Z,17.73
2023-04-19T15:05:52.518Z,17.57
2023-04-19T15:08:54.783Z,17.32
2023-04-19T15:11:57.672Z,17.32
2023-04-19T15:14:59.964Z,17.75
2023-04-19T15:18:02.652Z,17.50
2023-04-19T15:21:05.501Z,17.53
